createdAt,value
2019-05-20T00:02:25.773Z,92.20
2019-05-20T00:04:49.289Z,91.90
2019-05-20T00:07:17.990Z,90.90
2019-05-20T00:09:46.787Z,91.00
2019-05-20T00:12:15.488Z,91.10
2019-05-20T00:14:44.278Z,91.70
2019-05-20T00:17:12.976Z,93.00
2019-05-20T00:19:41.793Z,92.20
2019-05-20T00:22:10.471Z,92.40
2019-05-20T00:24:39.241Z,91.50
2019-05-20T00:27:07.964Z,92.40
2019-05-20T00:29:36.738Z,92.40
2019-05-20T00:32:05.527Z,92.60
2019-05-20T00:34:35.673Z,93.10
2019-05-20T00:37:04.562Z,92.20
2019-05-20T00:39:33.267Z,92.30
2019-05-20T00:42:02.054Z,92.70
2019-05-20T00:44:30.846Z,92.40
2019-05-20T00:46:59.547Z,91.60
2019-05-20T00:49:28.269Z,92.40
2019-05-20T00:51:56.970Z,91.80
2019-05-20T00:54:25.772Z,92.00
2019-05-20T00:56:54.554Z,92.80
2019-05-20T00:59:23.266Z,93.00
2019-05-20T01:01:52.118Z,92.20
2019-05-20T01:04:21.014Z,92.70
2019-05-20T01:06:49.732Z,93.50
2019-05-20T01:09:18.439Z,93.30
2019-05-20T01:11:47.145Z,93.70
2019-05-20T01:14:15.849Z,92.70
2019-05-20T01:16:45.071Z,92.30
2019-05-20T01:19:13.774Z,93.10
2019-05-20T01:21:42.489Z,93.10
2019-05-20T01:24:11.206Z,93.40
2019-05-20T01:26:39.903Z,93.20
2019-05-20T01:29:08.616Z,93.30
2019-05-20T01:31:37.327Z,92.80
2019-05-20T01:34:06.108Z,93.20
2019-05-20T01:36:34.913Z,93.40
2019-05-20T01:39:04.665Z,93.10
2019-05-20T01:41:33.386Z,93.10
2019-05-20T01:44:02.194Z,93.00
2019-05-20T01:46:30.908Z,93.70
2019-05-20T01:48:59.620Z,93.40
2019-05-20T01:51:28.356Z,93.30
2019-05-20T01:53:57.084Z,92.90
2019-05-20T01:56:25.781Z,91.60
2019-05-20T01:58:54.497Z,92.20
2019-05-20T02:01:23.212Z,92.80
2019-05-20T02:03:51.974Z,92.00
2019-05-20T02:06:20.685Z,92.30
2019-05-20T02:08:49.462Z,92.80
2019-05-20T02:11:18.185Z,93.10
2019-05-20T02:13:51.276Z,91.80
2019-05-20T02:16:21.624Z,93.10
2019-05-20T02:18:50.329Z,92.70
2019-05-20T02:21:19.106Z,91.90
2019-05-20T02:23:47.821Z,91.30
2019-05-20T02:26:16.592Z,92.20
2019-05-20T02:28:45.311Z,92.20
2019-05-20T02:31:14.019Z,92.00
2019-05-20T02:33:51.486Z,92.50
2019-05-20T02:36:13.090Z,92.30
2019-05-20T02:38:41.859Z,91.50
2019-05-20T02:41:10.578Z,91.50
2019-05-20T02:43:39.459Z,91.80
2019-05-20T02:46:08.230Z,91.90
2019-05-20T02:48:36.938Z,92.20
2019-05-20T02:51:05.648Z,92.20
2019-05-20T02:53:34.448Z,91.30
2019-05-20T02:56:03.142Z,91.90
2019-05-20T02:58:31.913Z,90.90
2019-05-20T03:01:00.686Z,91.40
2019-05-20T03:03:29.403Z,91.20
2019-05-20T03:05:58.176Z,91.20
2019-05-20T03:08:26.908Z,91.40
2019-05-20T03:10:55.622Z,91.30
2019-05-20T03:13:24.329Z,90.70
2019-05-20T03:15:53.046Z,90.70
2019-05-20T03:18:21.823Z,90.40
2019-05-20T03:20:50.618Z,90.80
2019-05-20T03:23:19.405Z,90.60
2019-05-20T03:25:48.170Z,90.60
2019-05-20T03:28:16.897Z,90.90
2019-05-20T03:30:45.599Z,90.40
2019-05-20T03:33:14.372Z,90.30
2019-05-20T03:35:43.085Z,90.20
2019-05-20T03:38:11.785Z,90.40
2019-05-20T03:40:40.575Z,90.30
2019-05-20T03:43:09.462Z,90.00
2019-05-20T03:45:38.170Z,90.30
2019-05-20T03:48:06.895Z,89.60
2019-05-20T03:50:35.589Z,90.00
2019-05-20T03:53:04.332Z,88.90
2019-05-20T03:55:33.042Z,88.50
2019-05-20T03:58:01.749Z,88.00
2019-05-20T04:00:46.962Z,87.40
2019-05-20T04:03:16.124Z,87.10
2019-05-20T04:05:45.260Z,86.70
2019-05-20T04:08:13.961Z,87.00
2019-05-20T04:10:42.674Z,87.10
2019-05-20T04:13:11.472Z,87.40
2019-05-20T04:15:40.243Z,87.70
2019-05-20T04:18:08.957Z,87.30
2019-05-20T04:20:37.730Z,87.50
2019-05-20T04:23:06.441Z,88.20
2019-05-20T04:25:35.219Z,87.70
2019-05-20T04:28:03.940Z,87.60
2019-05-20T04:30:32.672Z,87.10
2019-05-20T04:33:01.453Z,87.50
2019-05-20T04:35:30.171Z,88.10
2019-05-20T04:37:59.151Z,87.20
2019-05-20T04:40:27.858Z,86.80
2019-05-20T04:42:56.646Z,86.30
2019-05-20T04:45:25.450Z,86.30
2019-05-20T04:47:54.150Z,84.90
2019-05-20T04:50:22.850Z,85.60
2019-05-20T04:52:51.568Z,86.20
2019-05-20T04:55:20.337Z,86.10
2019-05-20T04:57:49.174Z,85.10
2019-05-20T05:00:20.858Z,84.60
2019-05-20T05:02:49.570Z,83.50
2019-05-20T05:05:18.292Z,82.90
2019-05-20T05:07:47.057Z,82.60
2019-05-20T05:10:15.980Z,82.40
2019-05-20T05:12:44.742Z,79.90
2019-05-20T05:15:15.121Z,81.50
2019-05-20T05:17:43.825Z,80.10
2019-05-20T05:20:17.885Z,79.00
2019-05-20T05:22:43.010Z,77.40
2019-05-20T05:25:12.089Z,78.30
2019-05-20T05:27:40.865Z,77.30
2019-05-20T05:30:09.857Z,76.90
2019-05-20T05:32:42.213Z,78.10
2019-05-20T05:35:13.690Z,78.50
2019-05-20T05:37:42.397Z,77.00
2019-05-20T05:40:11.516Z,78.10
2019-05-20T05:42:40.313Z,75.60
2019-05-20T05:45:09.442Z,76.30
2019-05-20T05:47:38.115Z,78.40
2019-05-20T05:50:08.523Z,75.70
2019-05-20T05:52:37.269Z,75.00
2019-05-20T05:55:06.169Z,74.30
2019-05-20T05:57:34.874Z,74.10
2019-05-20T06:00:05.774Z,74.30
2019-05-20T06:02:34.470Z,72.90
2019-05-20T06:05:03.254Z,71.70
2019-05-20T06:07:31.970Z,70.40
2019-05-20T06:10:00.657Z,68.10
2019-05-20T06:12:29.372Z,67.50
2019-05-20T06:14:58.116Z,69.00
2019-05-20T06:17:26.808Z,69.30
2019-05-20T06:19:55.528Z,68.10
2019-05-20T06:22:24.244Z,66.40
2019-05-20T06:24:52.943Z,66.00
2019-05-20T06:27:21.657Z,65.70
2019-05-20T06:29:50.362Z,65.50
2019-05-20T06:32:19.081Z,66.20
2019-05-20T06:34:47.803Z,63.80
2019-05-20T06:37:18.333Z,61.50
2019-05-20T06:39:47.058Z,60.30
2019-05-20T06:42:15.838Z,61.70
2019-05-20T06:44:52.992Z,61.40
2019-05-20T06:47:14.989Z,60.60
2019-05-20T06:49:43.699Z,60.70
2019-05-20T06:52:12.480Z,58.90
2019-05-20T06:54:41.204Z,58.90
2019-05-20T06:57:10.074Z,57.70
2019-05-20T06:59:39.010Z,57.10
2019-05-20T07:02:07.883Z,56.30
2019-05-20T07:04:36.597Z,54.50
2019-05-20T07:07:19.893Z,53.90
2019-05-20T07:09:35.677Z,53.00
2019-05-20T07:12:04.381Z,52.70
2019-05-20T07:14:33.094Z,54.50
2019-05-20T07:17:01.878Z,53.30
2019-05-20T07:19:30.552Z,51.90
2019-05-20T07:21:59.321Z,50.80
2019-05-20T07:24:28.023Z,50.90
2019-05-20T07:26:56.729Z,50.60
2019-05-20T07:29:25.534Z,51.20
2019-05-20T07:31:54.307Z,50.10
2019-05-20T07:34:23.001Z,49.80
2019-05-20T07:37:02.355Z,47.30
2019-05-20T07:39:22.098Z,49.10
2019-05-20T07:42:10.070Z,49.70
2019-05-20T07:44:38.777Z,47.90
2019-05-20T07:47:10.710Z,46.60
2019-05-20T07:49:38.123Z,47.40
2019-05-20T07:52:07.221Z,50.20
2019-05-20T07:54:36.425Z,50.80
2019-05-20T07:57:08.299Z,48.50
2019-05-20T07:59:39.593Z,47.30
2019-05-20T08:02:08.893Z,46.30
2019-05-20T08:04:37.648Z,47.30
2019-05-20T08:07:26.089Z,47.40
2019-05-20T08:09:44.642Z,45.70
2019-05-20T08:12:07.133Z,44.30
2019-05-20T08:14:35.841Z,45.80
2019-05-20T08:17:04.565Z,45.30
2019-05-20T08:19:33.282Z,45.40
2019-05-20T08:22:01.996Z,44.20
2019-05-20T08:24:30.813Z,40.90
2019-05-20T08:26:59.514Z,41.10
2019-05-20T08:29:28.237Z,43.00
2019-05-20T08:31:56.953Z,45.40
2019-05-20T08:34:25.678Z,43.90
2019-05-20T08:36:54.381Z,40.80
2019-05-20T08:39:23.185Z,40.90
2019-05-20T08:41:51.896Z,41.60
2019-05-20T08:44:20.609Z,39.90
2019-05-20T08:46:49.441Z,40.30
2019-05-20T08:49:18.202Z,38.50
2019-05-20T08:51:46.910Z,39.00
2019-05-20T08:54:15.622Z,40.30
2019-05-20T08:56:44.340Z,42.40
2019-05-20T08:59:13.145Z,43.40
2019-05-20T09:01:41.829Z,43.10
2019-05-20T09:04:10.547Z,44.00
2019-05-20T09:06:39.325Z,42.90
2019-05-20T09:09:11.982Z,43.70
2019-05-20T09:11:38.674Z,43.00
2019-05-20T09:14:07.523Z,41.90
2019-05-20T09:16:36.342Z,42.50
2019-05-20T09:19:05.053Z,42.20
2019-05-20T09:21:33.760Z,42.60
2019-05-20T09:24:02.470Z,40.50
2019-05-20T09:26:31.192Z,40.60
2019-05-20T09:28:59.896Z,41.20
2019-05-20T09:31:28.623Z,40.50
2019-05-20T09:33:57.337Z,40.10
2019-05-20T09:36:26.165Z,40.00
2019-05-20T09:38:55.038Z,41.00
2019-05-20T09:41:23.836Z,38.30
2019-05-20T09:43:52.660Z,36.10
2019-05-20T09:46:21.490Z,37.90
2019-05-20T09:48:50.222Z,38.20
2019-05-20T09:51:19.072Z,37.60
2019-05-20T09:53:47.885Z,38.80
2019-05-20T09:56:16.582Z,40.30
2019-05-20T09:58:45.301Z,40.30
2019-05-20T10:01:14.099Z,41.50
2019-05-20T10:03:42.789Z,42.10
2019-05-20T10:06:11.576Z,43.20
2019-05-20T10:08:44.770Z,40.40
2019-05-20T10:11:10.724Z,41.50
2019-05-20T10:13:39.436Z,41.90
2019-05-20T10:16:08.316Z,40.10
2019-05-20T10:18:38.898Z,39.20
2019-05-20T10:21:07.372Z,38.60
2019-05-20T10:23:36.082Z,39.90
2019-05-20T10:26:05.093Z,40.80
2019-05-20T10:28:33.868Z,38.30
2019-05-20T10:31:02.657Z,38.40
2019-05-20T10:33:31.368Z,37.70
2019-05-20T10:36:00.085Z,36.80
2019-05-20T10:38:28.783Z,36.10
2019-05-20T10:40:57.589Z,37.00
2019-05-20T10:43:26.285Z,34.90
2019-05-20T10:45:55.167Z,33.70
2019-05-20T10:48:23.987Z,33.30
2019-05-20T10:50:52.656Z,35.00
2019-05-20T10:53:21.353Z,36.30
2019-05-20T10:55:50.068Z,35.80
2019-05-20T10:58:18.845Z,37.70
2019-05-20T11:01:01.832Z,36.00
2019-05-20T11:03:17.914Z,39.10
2019-05-20T11:05:46.629Z,40.10
2019-05-20T11:08:15.417Z,40.20
2019-05-20T11:10:44.193Z,42.30
2019-05-20T11:13:12.919Z,42.80
2019-05-20T11:15:42.121Z,41.60
2019-05-20T11:18:10.899Z,43.60
2019-05-20T11:20:39.615Z,44.10
2019-05-20T11:23:08.385Z,44.40
2019-05-20T11:25:37.096Z,45.50
2019-05-20T11:28:05.815Z,43.90
2019-05-20T11:30:34.521Z,43.60
2019-05-20T11:33:03.253Z,42.00
2019-05-20T11:35:32.033Z,40.60
2019-05-20T11:38:00.730Z,38.80
2019-05-20T11:40:29.520Z,38.10
2019-05-20T11:42:58.220Z,37.50
2019-05-20T11:45:26.950Z,37.00
2019-05-20T11:47:55.644Z,35.30
2019-05-20T11:50:24.417Z,36.20
2019-05-20T11:52:53.205Z,36.80
2019-05-20T11:55:21.956Z,37.20
2019-05-20T11:57:50.634Z,37.90
2019-05-20T12:00:19.705Z,38.20
2019-05-20T12:02:48.422Z,39.00
2019-05-20T12:05:17.628Z,39.40
2019-05-20T12:07:46.361Z,40.20
2019-05-20T12:10:16.078Z,41.00
2019-05-20T12:12:46.169Z,41.00
2019-05-20T12:15:15.417Z,40.80
2019-05-20T12:17:44.202Z,40.60
2019-05-20T12:20:13.227Z,40.20
2019-05-20T12:22:42.146Z,39.70
2019-05-20T12:25:10.952Z,39.00
2019-05-20T12:27:39.655Z,40.80
2019-05-20T12:30:08.994Z,41.70
2019-05-20T12:32:37.679Z,41.40
2019-05-20T12:35:08.450Z,42.20
2019-05-20T12:37:37.167Z,42.70
2019-05-20T12:40:08.125Z,43.10
2019-05-20T12:42:37.834Z,43.90
2019-05-20T12:45:08.553Z,43.90
2019-05-20T12:47:37.363Z,44.10
2019-05-20T12:50:07.076Z,45.40
2019-05-20T12:52:37.277Z,45.40
2019-05-20T12:55:10.346Z,46.80
2019-05-20T12:57:39.148Z,47.30
2019-05-20T13:00:10.848Z,48.20
2019-05-20T13:02:40.627Z,48.30
2019-05-20T13:05:10.223Z,48.40
2019-05-20T13:07:38.961Z,48.60
2019-05-20T13:10:26.748Z,47.40
2019-05-20T13:12:39.116Z,46.80
2019-05-20T13:15:10.388Z,45.70
2019-05-20T13:17:43.899Z,45.80
2019-05-20T13:20:09.770Z,45.60
2019-05-20T13:22:38.479Z,44.60
2019-05-20T13:25:07.980Z,45.80
2019-05-20T13:27:36.764Z,45.00
2019-05-20T13:30:10.696Z,45.00
2019-05-20T13:32:39.415Z,45.60
2019-05-20T13:35:08.234Z,45.90
2019-05-20T13:37:37.123Z,46.00
2019-05-20T13:40:07.714Z,44.50
2019-05-20T13:42:36.630Z,44.30
2019-05-20T13:45:07.271Z,44.70
2019-05-20T13:47:35.992Z,42.90
2019-05-20T13:50:07.275Z,43.10
2019-05-20T13:52:35.998Z,43.90
2019-05-20T13:55:05.113Z,44.50
2019-05-20T13:57:33.819Z,44.50
2019-05-20T14:00:02.557Z,45.00
2019-05-20T14:02:31.328Z,43.80
2019-05-20T14:05:00.053Z,46.60
2019-05-20T14:07:28.778Z,47.30
2019-05-20T14:09:57.491Z,48.80
2019-05-20T14:12:26.259Z,48.10
2019-05-20T14:14:54.922Z,48.40
2019-05-20T14:17:23.646Z,48.60
2019-05-20T14:19:52.416Z,49.20
2019-05-20T14:22:21.149Z,50.80
2019-05-20T14:24:49.857Z,50.90
2019-05-20T14:27:18.583Z,52.40
2019-05-20T14:29:47.304Z,53.50
2019-05-20T14:32:16.082Z,52.90
2019-05-20T14:34:44.905Z,52.70
2019-05-20T14:37:13.623Z,53.30
2019-05-20T14:39:42.376Z,53.20
2019-05-20T14:42:11.138Z,55.20
2019-05-20T14:44:39.913Z,55.50
2019-05-20T14:47:08.707Z,55.70
2019-05-20T14:49:37.412Z,56.00
2019-05-20T14:52:06.115Z,56.40
2019-05-20T14:54:34.899Z,56.30
2019-05-20T14:57:03.673Z,56.40
2019-05-20T14:59:32.448Z,55.50
2019-05-20T15:02:01.282Z,54.20
2019-05-20T15:04:29.986Z,54.00
2019-05-20T15:06:58.698Z,53.90
2019-05-20T15:09:27.438Z,53.80
2019-05-20T15:11:56.221Z,54.60
2019-05-20T15:14:24.982Z,56.20
2019-05-20T15:16:53.708Z,56.00
2019-05-20T15:19:22.480Z,55.90
2019-05-20T15:21:51.324Z,56.10
2019-05-20T15:24:20.009Z,57.30
2019-05-20T15:26:49.005Z,58.80
2019-05-20T15:29:27.566Z,59.40
2019-05-20T15:31:48.295Z,59.20
2019-05-20T15:34:17.001Z,59.70
2019-05-20T15:36:45.834Z,59.80
2019-05-20T15:39:14.523Z,59.70
2019-05-20T15:41:43.371Z,60.30
2019-05-20T15:44:12.165Z,60.40
2019-05-20T15:46:40.856Z,60.60
2019-05-20T15:49:09.598Z,59.30
2019-05-20T15:51:38.295Z,58.00
2019-05-20T15:54:07.078Z,57.70
2019-05-20T15:56:35.878Z,57.60
2019-05-20T15:59:04.587Z,57.40
2019-05-20T16:01:33.292Z,58.90
2019-05-20T16:04:01.998Z,59.90
2019-05-20T16:06:30.787Z,60.90
2019-05-20T16:08:59.527Z,60.90
2019-05-20T16:11:28.395Z,61.20
2019-05-20T16:13:57.313Z,61.20
2019-05-20T16:16:26.025Z,61.60
2019-05-20T16:18:54.736Z,61.50
2019-05-20T16:21:23.456Z,61.00
2019-05-20T16:23:52.261Z,60.70
2019-05-20T16:26:20.981Z,59.70
2019-05-20T16:28:49.685Z,58.80
2019-05-20T16:31:18.407Z,58.70
2019-05-20T16:33:47.184Z,57.50
2019-05-20T16:36:15.918Z,57.70
2019-05-20T16:38:44.649Z,56.40
2019-05-20T16:41:13.355Z,56.00
2019-05-20T16:43:42.127Z,55.60
2019-05-20T16:46:10.843Z,56.00
2019-05-20T16:48:39.564Z,56.70
2019-05-20T16:51:08.349Z,56.20
2019-05-20T16:53:37.327Z,56.70
2019-05-20T16:56:06.044Z,57.90
2019-05-20T16:58:34.757Z,59.10
2019-05-20T17:01:03.477Z,58.80
2019-05-20T17:03:32.186Z,60.70
2019-05-20T17:06:00.915Z,62.00
2019-05-20T17:08:29.643Z,63.00
2019-05-20T17:10:58.420Z,63.40
2019-05-20T17:13:27.141Z,63.70
2019-05-20T17:15:55.846Z,64.30
2019-05-20T17:18:24.559Z,65.30
2019-05-20T17:20:53.270Z,64.50
2019-05-20T17:23:21.982Z,65.40
2019-05-20T17:25:51.038Z,65.40
2019-05-20T17:28:19.912Z,65.50
2019-05-20T17:30:48.627Z,65.60
2019-05-20T17:33:17.411Z,66.00
2019-05-20T17:35:46.209Z,65.80
2019-05-20T17:38:14.910Z,65.70
2019-05-20T17:40:43.617Z,65.30
2019-05-20T17:43:12.332Z,65.90
2019-05-20T17:45:41.136Z,65.60
2019-05-20T17:48:10.023Z,66.90
2019-05-20T17:50:38.735Z,66.60
2019-05-20T17:53:07.446Z,67.30
2019-05-20T17:55:36.242Z,67.50
2019-05-20T17:58:05.680Z,67.50
2019-05-20T18:00:34.439Z,68.10
2019-05-20T18:03:03.214Z,68.80
2019-05-20T18:05:31.955Z,68.70
2019-05-20T18:08:00.666Z,70.00
2019-05-20T18:10:29.511Z,70.70
2019-05-20T18:12:58.174Z,70.60
2019-05-20T18:15:26.953Z,70.40
2019-05-20T18:17:55.661Z,70.70
2019-05-20T18:20:24.375Z,71.20
2019-05-20T18:22:53.178Z,72.20
2019-05-20T18:25:21.885Z,72.20
2019-05-20T18:27:50.630Z,73.30
2019-05-20T18:30:19.986Z,73.10
2019-05-20T18:32:48.725Z,73.90
2019-05-20T18:35:17.500Z,74.60
2019-05-20T18:37:46.200Z,75.20
2019-05-20T18:40:16.317Z,74.70
2019-05-20T18:42:45.102Z,75.80
2019-05-20T18:45:13.886Z,76.00
2019-05-20T18:47:42.676Z,75.80
2019-05-20T18:50:11.778Z,77.60
2019-05-20T18:52:40.573Z,77.50
2019-05-20T18:55:09.383Z,78.10
2019-05-20T18:57:38.089Z,79.00
2019-05-20T19:00:08.722Z,79.00
2019-05-20T19:02:37.513Z,78.70
2019-05-20T19:05:07.631Z,80.00
2019-05-20T19:07:36.421Z,80.10
2019-05-20T19:10:06.820Z,80.60
2019-05-20T19:12:35.529Z,81.30
2019-05-20T19:15:05.636Z,82.10
2019-05-20T19:17:34.471Z,82.80
2019-05-20T19:20:03.349Z,81.80
2019-05-20T19:22:32.109Z,82.80
2019-05-20T19:25:01.585Z,81.20
2019-05-20T19:27:31.315Z,82.00
2019-05-20T19:30:00.114Z,82.60
2019-05-20T19:32:29.386Z,83.00
2019-05-20T19:34:58.123Z,83.20
2019-05-20T19:37:26.886Z,83.80
2019-05-20T19:39:55.674Z,84.80
2019-05-20T19:42:24.456Z,84.90
2019-05-20T19:44:53.159Z,85.80
2019-05-20T19:47:21.940Z,86.30
2019-05-20T19:49:50.660Z,86.80
2019-05-20T19:52:19.425Z,86.50
2019-05-20T19:54:48.156Z,87.20
2019-05-20T19:57:16.939Z,86.70
2019-05-20T19:59:45.656Z,86.60
2019-05-20T20:02:17.597Z,87.50
2019-05-20T20:04:44.801Z,88.90
2019-05-20T20:07:13.601Z,87.30
2019-05-20T20:09:42.375Z,86.00
2019-05-20T20:12:11.106Z,87.00
2019-05-20T20:14:39.861Z,85.50
2019-05-20T20:17:08.569Z,86.60
2019-05-20T20:19:37.354Z,86.30
2019-05-20T20:22:06.144Z,86.80
2019-05-20T20:24:34.861Z,87.80
2019-05-20T20:27:03.631Z,88.40
2019-05-20T20:29:32.419Z,88.40
2019-05-20T20:32:01.127Z,88.00
2019-05-20T20:34:30.672Z,87.10
2019-05-20T20:36:59.523Z,86.90
2019-05-20T20:39:28.258Z,86.40
2019-05-20T20:41:56.973Z,86.90
2019-05-20T20:44:25.666Z,88.80
2019-05-20T20:46:54.457Z,89.70
2019-05-20T20:49:23.163Z,87.60
2019-05-20T20:51:51.869Z,88.40
2019-05-20T20:54:20.583Z,89.40
2019-05-20T20:56:49.284Z,89.30
2019-05-20T20:59:18.073Z,88.60
2019-05-20T21:01:46.781Z,88.60
2019-05-20T21:04:15.493Z,88.60
2019-05-20T21:06:44.208Z,88.10
2019-05-20T21:09:12.952Z,88.20
2019-05-20T21:11:41.725Z,89.40
2019-05-20T21:14:10.429Z,88.20
2019-05-20T21:16:40.089Z,90.20
2019-05-20T21:19:08.795Z,90.10
2019-05-20T21:21:37.513Z,90.10
2019-05-20T21:24:06.299Z,90.90
2019-05-20T21:26:35.013Z,90.70
2019-05-20T21:29:03.806Z,90.60
2019-05-20T21:31:32.509Z,90.60
2019-05-20T21:34:01.227Z,91.00
2019-05-20T21:36:30.025Z,91.10
2019-05-20T21:38:58.745Z,91.50
2019-05-20T21:41:27.531Z,92.00
2019-05-20T21:43:56.243Z,91.30
2019-05-20T21:46:24.993Z,91.40
2019-05-20T21:48:53.672Z,91.40
2019-05-20T21:51:22.403Z,91.20
2019-05-20T21:53:51.130Z,91.70
2019-05-20T21:56:19.898Z,91.80
2019-05-20T21:58:48.590Z,91.80
2019-05-20T22:01:17.382Z,91.90
2019-05-20T22:03:46.170Z,91.70
2019-05-20T22:06:14.999Z,91.50
2019-05-20T22:08:43.672Z,91.50
2019-05-20T22:11:12.380Z,91.60
2019-05-20T22:13:41.103Z,91.70
2019-05-20T22:16:09.865Z,91.90
2019-05-20T22:18:38.589Z,92.20
2019-05-20T22:21:08.963Z,91.80
2019-05-20T22:23:42.061Z,91.70
2019-05-20T22:26:10.769Z,91.40
2019-05-20T22:28:39.545Z,91.80
2019-05-20T22:31:08.339Z,91.90
2019-05-20T22:33:41.341Z,92.10
2019-05-20T22:36:07.409Z,91.60
2019-05-20T22:38:36.116Z,92.30
2019-05-20T22:41:04.859Z,92.30
2019-05-20T22:43:33.634Z,91.30
2019-05-20T22:46:02.359Z,91.40
2019-05-20T22:48:31.136Z,91.50
2019-05-20T22:50:59.859Z,91.30
2019-05-20T22:53:28.584Z,91.90
2019-05-20T22:55:57.364Z,91.60
2019-05-20T22:58:26.065Z,91.70
2019-05-20T23:00:54.857Z,91.00
2019-05-20T23:03:23.636Z,92.00
2019-05-20T23:05:52.364Z,91.80
2019-05-20T23:08:21.091Z,91.90
2019-05-20T23:10:49.783Z,92.20
2019-05-20T23:13:18.553Z,91.80
2019-05-20T23:15:47.350Z,92.00
2019-05-20T23:18:16.066Z,91.60
2019-05-20T23:20:45.042Z,92.20
2019-05-20T23:23:13.767Z,93.40
2019-05-20T23:25:42.471Z,93.80
2019-05-20T23:28:11.191Z,94.10
2019-05-20T23:30:39.902Z,94.50
2019-05-20T23:33:08.630Z,94.00
2019-05-20T23:35:37.342Z,94.60
2019-05-20T23:38:06.065Z,95.10
2019-05-20T23:40:34.785Z,94.90
2019-05-20T23:43:03.565Z,94.20
2019-05-20T23:45:32.286Z,93.90
2019-05-20T23:48:01.002Z,94.50
2019-05-20T23:50:29.728Z,94.10
2019-05-20T23:52:58.449Z,93.30
2019-05-20T23:55:27.159Z,93.70
2019-05-20T23:57:55.887Z,94.10
